createdAt,value
2022-11-17T00:01:09.617Z,5.06
2022-11-17T00:04:13.939Z,5.06
2022-11-17T00:07:18.398Z,5.04
2022-11-17T00:10:23.135Z,4.99
2022-11-17T00:13:49.847Z,5.02
2022-11-17T00:16:54.592Z,4.95
2022-11-17T00:20:17.207Z,4.90
2022-11-17T00:23:21.684Z,4.88
2022-11-17T00:26:28.805Z,4.83
2022-11-17T00:29:37.346Z,4.84
2022-11-17T00:33:01.923Z,4.84
2022-11-17T00:36:07.724Z,4.82
2022-11-17T00:39:14.008Z,4.78
2022-11-17T00:42:18.724Z,4.78
2022-11-17T00:45:23.090Z,4.83
2022-11-17T00:48:27.313Z,4.86
2022-11-17T00:51:31.893Z,4.86
2022-11-17T00:54:36.689Z,4.86
2022-11-17T00:57:47.936Z,4.85
2022-11-17T01:00:52.256Z,4.87
2022-11-17T01:04:04.829Z,4.84
2022-11-17T01:07:09.421Z,4.83
2022-11-17T01:10:32.047Z,4.83
2022-11-17T01:13:37.939Z,4.78
2022-11-17T01:16:45.416Z,4.80
2022-11-17T01:20:28.498Z,4.83
2022-11-17T01:23:47.368Z,4.85
2022-11-17T01:26:52.294Z,4.87
2022-11-17T01:29:57.222Z,4.85
2022-11-17T01:33:01.962Z,4.83
2022-11-17T01:36:27.381Z,4.84
2022-11-17T01:39:35.555Z,4.79
2022-11-17T01:42:40.146Z,4.79
2022-11-17T01:45:45.119Z,4.77
2022-11-17T01:48:51.758Z,4.76
2022-11-17T01:52:11.634Z,4.74
2022-11-17T01:55:20.117Z,4.79
2022-11-17T01:58:40.228Z,4.72
2022-11-17T02:01:57.412Z,4.70
2022-11-17T02:05:11.651Z,4.69
2022-11-17T02:08:18.559Z,4.69
2022-11-17T02:11:24.102Z,4.70
2022-11-17T02:14:28.966Z,4.70
2022-11-17T02:17:39.085Z,4.64
2022-11-17T02:20:51.556Z,4.62
2022-11-17T02:24:41.668Z,4.57
2022-11-17T02:28:12.111Z,4.60
2022-11-17T02:31:46.823Z,4.57
2022-11-17T02:35:26.984Z,4.54
2022-11-17T02:39:09.151Z,4.49
2022-11-17T02:42:53.004Z,4.48
2022-11-17T02:46:13.433Z,4.50
2022-11-17T02:49:32.890Z,4.49
2022-11-17T02:52:37.889Z,4.53
2022-11-17T02:55:53.203Z,4.54
2022-11-17T02:59:03.203Z,4.53
2022-11-17T03:02:54.998Z,4.52
2022-11-17T03:06:41.100Z,4.38
2022-11-17T03:10:20.706Z,4.40
2022-11-17T03:14:10.716Z,4.38
2022-11-17T03:17:47.094Z,4.43
2022-11-17T03:21:20.434Z,4.38
2022-11-17T03:24:33.771Z,4.42
2022-11-17T03:27:50.175Z,4.35
2022-11-17T03:30:57.204Z,4.31
2022-11-17T03:34:05.405Z,4.33
2022-11-17T03:37:13.401Z,4.33
2022-11-17T03:40:25.423Z,4.27
2022-11-17T03:43:32.620Z,4.27
2022-11-17T03:46:42.858Z,4.26
2022-11-17T03:50:05.909Z,4.24
2022-11-17T03:53:10.751Z,4.21
2022-11-17T03:56:42.664Z,4.20
2022-11-17T04:00:07.198Z,4.22
2022-11-17T04:03:34.521Z,4.18
2022-11-17T04:06:55.378Z,4.16
2022-11-17T04:10:30.636Z,4.19
2022-11-17T04:13:59.988Z,4.17
2022-11-17T04:17:12.138Z,4.08
2022-11-17T04:20:20.252Z,4.02
2022-11-17T04:23:34.147Z,4.05
2022-11-17T04:27:05.408Z,4.04
2022-11-17T04:30:14.268Z,4.05
2022-11-17T04:33:23.486Z,4.04
2022-11-17T04:36:48.742Z,3.99
2022-11-17T04:40:03.591Z,3.99
2022-11-17T04:43:16.137Z,3.97
2022-11-17T04:46:25.599Z,3.92
2022-11-17T04:50:20.296Z,3.92
2022-11-17T04:53:28.204Z,3.91
2022-11-17T04:56:53.147Z,3.94
2022-11-17T04:59:57.878Z,4.01
2022-11-17T05:03:02.759Z,4.02
2022-11-17T05:06:15.058Z,4.07
2022-11-17T05:09:25.881Z,4.04
2022-11-17T05:12:56.103Z,4.07
2022-11-17T05:16:18.816Z,4.07
2022-11-17T05:19:29.871Z,4.09
2022-11-17T05:22:52.788Z,4.11
2022-11-17T05:25:57.204Z,4.14
2022-11-17T05:29:03.959Z,4.13
2022-11-17T05:32:12.016Z,4.14
2022-11-17T05:35:19.683Z,4.19
2022-11-17T05:38:24.261Z,4.18
2022-11-17T05:41:58.480Z,4.17
2022-11-17T05:45:12.867Z,4.08
2022-11-17T05:48:21.369Z,4.10
2022-11-17T05:51:40.038Z,4.08
2022-11-17T05:54:49.359Z,4.10
2022-11-17T05:59:28.259Z,4.09
2022-11-17T06:02:46.615Z,4.10
2022-11-17T06:05:55.827Z,4.05
2022-11-17T06:09:05.689Z,4.03
2022-11-17T06:15:42.087Z,4.08
2022-11-17T06:23:10.120Z,4.02
2022-11-17T06:26:16.350Z,3.95
2022-11-17T06:29:23.127Z,3.90
2022-11-17T06:32:28.540Z,3.90
2022-11-17T06:35:35.140Z,3.93
2022-11-17T06:38:39.959Z,3.93
2022-11-17T06:41:44.350Z,3.94
2022-11-17T06:44:48.361Z,3.97
2022-11-17T06:47:53.961Z,3.99
2022-11-17T06:51:06.201Z,3.99
2022-11-17T06:54:12.431Z,4.00
2022-11-17T06:57:21.395Z,4.02
2022-11-17T07:00:27.000Z,4.05
2022-11-17T07:03:31.425Z,4.04
2022-11-17T07:06:39.214Z,4.07
2022-11-17T07:09:46.269Z,4.05
2022-11-17T07:12:51.326Z,4.05
2022-11-17T07:16:04.256Z,4.03
2022-11-17T07:19:10.204Z,4.00
2022-11-17T07:22:14.553Z,3.95
2022-11-17T07:25:23.285Z,4.01
2022-11-17T07:28:28.793Z,3.98
2022-11-17T07:31:36.788Z,3.99
2022-11-17T07:34:42.520Z,3.97
2022-11-17T07:37:47.140Z,3.96
2022-11-17T07:40:51.628Z,3.92
2022-11-17T07:43:55.767Z,3.93
2022-11-17T07:47:01.035Z,3.94
2022-11-17T07:50:06.389Z,3.93
2022-11-17T07:53:14.075Z,3.97
2022-11-17T07:56:18.858Z,4.00
2022-11-17T07:59:23.373Z,4.01
2022-11-17T08:02:28.865Z,4.03
2022-11-17T08:05:43.311Z,3.98
2022-11-17T08:08:49.723Z,3.95
2022-11-17T08:11:57.926Z,3.94
2022-11-17T08:15:02.985Z,3.93
2022-11-17T08:18:10.405Z,3.99
2022-11-17T08:21:15.620Z,4.08
2022-11-17T08:24:20.858Z,4.00
2022-11-17T08:27:26.921Z,3.97
2022-11-17T08:30:34.861Z,4.02
2022-11-17T08:33:39.257Z,3.96
2022-11-17T08:36:43.514Z,3.98
2022-11-17T08:39:47.721Z,3.97
2022-11-17T08:43:00.325Z,3.97
2022-11-17T08:46:05.536Z,4.05
2022-11-17T08:49:10.559Z,4.06
2022-11-17T08:52:15.207Z,4.06
2022-11-17T08:55:26.716Z,3.99
2022-11-17T08:58:43.157Z,3.92
2022-11-17T09:01:50.039Z,3.99
2022-11-17T09:04:57.869Z,3.97
2022-11-17T09:08:22.742Z,3.97
2022-11-17T09:11:27.140Z,4.03
2022-11-17T09:14:31.755Z,4.05
2022-11-17T09:17:36.378Z,4.06
2022-11-17T09:20:45.470Z,4.10
2022-11-17T09:23:51.691Z,4.11
2022-11-17T09:27:03.573Z,4.15
2022-11-17T09:30:24.025Z,4.15
2022-11-17T09:33:37.381Z,4.19
2022-11-17T09:36:42.227Z,4.19
2022-11-17T09:39:49.894Z,4.19
2022-11-17T09:42:57.677Z,4.24
2022-11-17T09:46:20.726Z,4.22
2022-11-17T09:49:58.377Z,4.18
2022-11-17T09:53:19.205Z,4.13
2022-11-17T09:56:33.046Z,4.15
2022-11-17T09:59:37.589Z,4.18
2022-11-17T10:02:46.372Z,4.22
2022-11-17T10:05:58.371Z,4.25
2022-11-17T10:09:15.398Z,4.24
2022-11-17T10:12:32.808Z,4.26
2022-11-17T10:15:50.987Z,4.31
2022-11-17T10:18:55.636Z,4.29
2022-11-17T10:22:03.275Z,4.29
2022-11-17T10:25:39.637Z,4.35
2022-11-17T10:33:50.934Z,4.34
2022-11-17T10:37:23.041Z,4.36
2022-11-17T10:40:46.893Z,4.37
2022-11-17T10:44:22.797Z,4.37
2022-11-17T10:47:40.568Z,4.42
2022-11-17T10:51:01.071Z,4.41
2022-11-17T10:54:22.153Z,4.46
2022-11-17T10:57:30.934Z,4.49
2022-11-17T11:00:37.543Z,4.52
2022-11-17T11:03:49.826Z,4.50
2022-11-17T11:07:19.959Z,4.56
2022-11-17T11:10:35.309Z,4.57
2022-11-17T11:13:54.865Z,4.54
2022-11-17T11:17:00.119Z,4.55
2022-11-17T11:20:12.950Z,4.55
2022-11-17T11:23:55.758Z,4.51
2022-11-17T11:27:27.074Z,4.43
2022-11-17T11:31:10.136Z,4.44
2022-11-17T11:35:20.497Z,4.47
2022-11-17T11:38:50.306Z,4.43
2022-11-17T13:30:55.550Z,3.94
2022-11-17T13:34:37.318Z,3.90
2022-11-17T13:37:44.573Z,3.90
2022-11-17T13:40:53.624Z,3.89
2022-11-17T13:44:05.373Z,3.89
2022-11-17T13:47:40.619Z,3.93
2022-11-17T13:51:48.118Z,3.88
2022-11-17T13:54:53.571Z,3.80
2022-11-17T13:58:26.225Z,3.75
2022-11-17T14:01:33.364Z,3.70
2022-11-17T14:05:22.643Z,3.73
2022-11-17T14:08:32.159Z,3.78
2022-11-17T14:12:06.296Z,3.84
2022-11-17T14:15:21.527Z,3.81
2022-11-17T14:19:18.353Z,3.79
2022-11-17T14:22:31.252Z,3.82
2022-11-17T14:25:57.388Z,3.79
2022-11-17T14:29:04.876Z,3.80
2022-11-17T14:32:09.723Z,3.81
2022-11-17T14:43:01.832Z,3.72
2022-11-17T14:46:27.443Z,3.73
2022-11-17T14:49:32.080Z,3.72
2022-11-17T14:52:53.677Z,3.68
2022-11-17T14:56:08.213Z,3.64
2022-11-17T14:59:20.732Z,3.66
2022-11-17T15:02:26.523Z,3.69
2022-11-17T15:05:33.584Z,3.67
2022-11-17T15:08:49.790Z,3.66
2022-11-17T15:11:59.257Z,3.66
2022-11-17T15:15:11.875Z,3.65
2022-11-17T15:18:30.180Z,3.67
2022-11-17T15:21:39.903Z,3.63
2022-11-17T15:25:12.698Z,3.68
2022-11-17T15:28:41.621Z,3.72
2022-11-17T15:31:55.571Z,3.75
2022-11-17T15:35:07.071Z,3.70
2022-11-17T15:38:13.062Z,3.66
2022-11-17T15:41:55.384Z,3.68
2022-11-17T15:45:29.911Z,3.69
2022-11-17T15:48:52.603Z,3.65
2022-11-17T15:51:57.712Z,3.67
2022-11-17T15:55:05.249Z,3.71
2022-11-17T15:58:14.363Z,3.73
2022-11-17T16:01:25.010Z,3.73
2022-11-17T16:05:00.928Z,3.69
2022-11-17T16:08:05.671Z,3.74
2022-11-17T16:11:13.182Z,3.77
2022-11-17T16:14:17.172Z,3.75
2022-11-17T16:17:30.489Z,3.69
2022-11-17T16:20:35.042Z,3.70
2022-11-17T16:27:23.768Z,3.73
2022-11-17T16:30:32.748Z,3.73
2022-11-17T16:34:07.458Z,3.70
2022-11-17T16:37:23.100Z,3.71
2022-11-17T16:40:51.923Z,3.72
2022-11-17T16:44:24.308Z,3.70
2022-11-17T16:47:32.411Z,3.66
2022-11-17T16:50:42.377Z,3.60
2022-11-17T16:54:44.077Z,3.64
2022-11-17T16:57:50.784Z,3.63
2022-11-17T17:02:07.990Z,3.60
2022-11-17T17:05:47.277Z,3.60
2022-11-17T17:09:15.912Z,3.61
2022-11-17T17:12:23.253Z,3.61
2022-11-17T17:15:28.146Z,3.61
2022-11-17T17:18:33.444Z,3.61
2022-11-17T17:21:45.743Z,3.62
2022-11-17T17:24:56.106Z,3.61
2022-11-17T17:33:07.010Z,3.55
2022-11-17T17:36:25.162Z,3.56
2022-11-17T17:39:37.740Z,3.53
2022-11-17T17:42:46.104Z,3.55
2022-11-17T17:46:08.396Z,3.56
2022-11-17T17:49:21.109Z,3.58
2022-11-17T17:52:27.339Z,3.60
2022-11-17T17:55:41.216Z,3.60
2022-11-17T18:00:01.315Z,3.62
2022-11-17T18:03:14.510Z,3.62
2022-11-17T18:12:59.514Z,3.58
2022-11-17T18:46:49.958Z,3.43
2022-11-17T18:50:21.943Z,3.44
2022-11-17T18:54:11.155Z,3.43
2022-11-17T18:57:34.247Z,3.42
2022-11-17T19:04:49.802Z,3.42
2022-11-17T19:52:17.730Z,3.24
2022-11-17T19:55:42.314Z,3.22
2022-11-17T19:59:04.337Z,3.15
2022-11-17T20:02:14.392Z,3.14
2022-11-17T20:05:39.910Z,3.09
2022-11-17T20:08:52.901Z,3.14
2022-11-17T20:12:00.433Z,3.04
2022-11-17T20:24:45.929Z,2.96
2022-11-17T20:33:00.587Z,2.82
2022-11-17T21:17:04.404Z,2.83
2022-11-17T21:20:28.032Z,2.80
2022-11-17T21:23:44.905Z,2.81
2022-11-17T21:27:42.041Z,2.86
2022-11-17T21:31:12.132Z,2.89
2022-11-17T21:34:28.231Z,2.92
2022-11-17T21:37:58.281Z,2.89
2022-11-17T21:41:47.938Z,2.87
2022-11-17T21:46:01.254Z,2.88
2022-11-17T21:49:46.621Z,2.84
2022-11-17T22:11:22.652Z,2.93
2022-11-17T22:14:53.321Z,2.93
2022-11-17T22:18:17.425Z,2.92
2022-11-17T22:28:36.534Z,2.88
2022-11-17T22:31:41.880Z,2.80
2022-11-17T22:40:34.897Z,2.78
2022-11-17T22:44:19.624Z,2.73
2022-11-17T23:23:34.469Z,2.63
2022-11-17T23:27:39.383Z,2.57
2022-11-17T23:35:26.096Z,2.50
2022-11-17T23:43:36.471Z,2.41
2022-11-17T23:47:15.896Z,2.38
2022-11-17T23:50:27.308Z,2.37
2022-11-17T23:53:59.159Z,2.33
